Austonio, Texas
Current Conditions -  °F | °C
As of 10:15 AM on Saturday 22 Nov 2014 (Local Time) from KDKR Reporting Station
Clear Clear  
Wind Chill: 66°   Ceiling: Unl
Heat Index: 66°   Visibility: 9mi
Dew Point: 61°   Wind: 7mph
Humidity: 83%   Direction: 150°SSE
Pressure: 30.11"   Gusts: 17mph
Location:  31.2828°N, 95.4821°W
Report Text: KDKR 221615Z AUTO 15006G15KT 9SM CLR 19/16 A3011 RMK AO2 LTG DSNT SW-NW
Loading
Personal Weather Stations






























Interactive Weather Map New forecast layout! Learn more

10-Day Weather Forecast

Advertisements
Track Severe Weather on mobile